sensor_id;sensor_type;location;lat;lon;timestamp;temperature;humidity
17489;DHT22;8861;52.644;4.734;2023-03-01T00:01:55;1.10;99.90
17489;DHT22;8861;52.644;4.734;2023-03-01T00:04:22;1.10;99.90
17489;DHT22;8861;52.644;4.734;2023-03-01T00:06:49;1.10;99.90
17489;DHT22;8861;52.644;4.734;2023-03-01T00:09:17;1.10;99.90
17489;DHT22;8861;52.644;4.734;2023-03-01T00:11:44;1.00;99.90
17489;DHT22;8861;52.644;4.734;2023-03-01T00:14:11;1.10;99.90
17489;DHT22;8861;52.644;4.734;2023-03-01T00:16:41;1.10;99.90
17489;DHT22;8861;52.644;4.734;2023-03-01T00:19:11;1.10;99.90
17489;DHT22;8861;52.644;4.734;2023-03-01T00:21:38;1.00;99.90
17489;DHT22;8861;52.644;4.734;2023-03-01T00:24:06;1.00;99.90
17489;DHT22;8861;52.644;4.734;2023-03-01T00:26:33;1.10;99.90
17489;DHT22;8861;52.644;4.734;2023-03-01T00:29:00;1.00;99.90
17489;DHT22;8861;52.644;4.734;2023-03-01T00:31:28;1.10;99.90
17489;DHT22;8861;52.644;4.734;2023-03-01T00:33:58;1.00;99.90
17489;DHT22;8861;52.644;4.734;2023-03-01T00:36:27;1.00;99.90
17489;DHT22;8861;52.644;4.734;2023-03-01T00:38:55;0.90;99.90
17489;DHT22;8861;52.644;4.734;2023-03-01T00:41:23;0.90;99.90
17489;DHT22;8861;52.644;4.734;2023-03-01T00:43:52;0.90;99.90
17489;DHT22;8861;52.644;4.734;2023-03-01T00:46:21;0.90;99.90
17489;DHT22;8861;52.644;4.734;2023-03-01T00:48:49;0.90;99.90
17489;DHT22;8861;52.644;4.734;2023-03-01T00:51:19;0.90;99.90
17489;DHT22;8861;52.644;4.734;2023-03-01T00:53:49;0.80;99.90
17489;DHT22;8861;52.644;4.734;2023-03-01T00:56:17;0.80;99.90
17489;DHT22;8861;52.644;4.734;2023-03-01T00:58:44;0.80;99.90
17489;DHT22;8861;52.644;4.734;2023-03-01T01:01:14;0.80;99.90
17489;DHT22;8861;52.644;4.734;2023-03-01T01:03:45;0.80;99.90
17489;DHT22;8861;52.644;4.734;2023-03-01T01:06:19;0.80;99.90
17489;DHT22;8861;52.644;4.734;2023-03-01T01:08:47;0.70;99.90
17489;DHT22;8861;52.644;4.734;2023-03-01T01:11:14;0.80;99.90
17489;DHT22;8861;52.644;4.734;2023-03-01T01:13:43;0.70;99.90
17489;DHT22;8861;52.644;4.734;2023-03-01T01:16:10;0.70;99.90
17489;DHT22;8861;52.644;4.734;2023-03-01T01:18:37;0.70;99.90
17489;DHT22;8861;52.644;4.734;2023-03-01T01:21:06;0.70;99.90
17489;DHT22;8861;52.644;4.734;2023-03-01T01:23:34;0.70;99.90
17489;DHT22;8861;52.644;4.734;2023-03-01T01:26:05;0.70;99.90
17489;DHT22;8861;52.644;4.734;2023-03-01T01:28:32;0.70;99.90
17489;DHT22;8861;52.644;4.734;2023-03-01T01:31:00;0.70;99.90
17489;DHT22;8861;52.644;4.734;2023-03-01T01:33:27;0.70;99.90
17489;DHT22;8861;52.644;4.734;2023-03-01T01:35:54;0.70;99.90
17489;DHT22;8861;52.644;4.734;2023-03-01T01:38:21;0.70;99.90
17489;DHT22;8861;52.644;4.734;2023-03-01T01:40:50;0.70;99.90
17489;DHT22;8861;52.644;4.734;2023-03-01T01:43:20;0.70;99.90
17489;DHT22;8861;52.644;4.734;2023-03-01T01:45:48;0.70;99.90
17489;DHT22;8861;52.644;4.734;2023-03-01T01:48:19;0.70;99.90
17489;DHT22;8861;52.644;4.734;2023-03-01T01:50:50;0.60;99.90
17489;DHT22;8861;52.644;4.734;2023-03-01T01:53:21;0.60;99.90
17489;DHT22;8861;52.644;4.734;2023-03-01T01:55:53;0.60;99.90
17489;DHT22;8861;52.644;4.734;2023-03-01T01:58:24;0.60;99.90
17489;DHT22;8861;52.644;4.734;2023-03-01T02:00:53;0.50;99.90
17489;DHT22;8861;52.644;4.734;2023-03-01T02:03:22;0.50;99.90
17489;DHT22;8861;52.644;4.734;2023-03-01T02:05:56;0.50;99.90
17489;DHT22;8861;52.644;4.734;2023-03-01T02:08:26;0.50;99.90
17489;DHT22;8861;52.644;4.734;2023-03-01T02:10:57;0.50;99.90
17489;DHT22;8861;52.644;4.734;2023-03-01T02:13:25;0.40;99.90
17489;DHT22;8861;52.644;4.734;2023-03-01T02:15:53;0.40;99.90
17489;DHT22;8861;52.644;4.734;2023-03-01T02:18:21;0.40;99.90
17489;DHT22;8861;52.644;4.734;2023-03-01T02:21:01;0.40;99.90
17489;DHT22;8861;52.644;4.734;2023-03-01T02:23:30;0.40;99.90
17489;DHT22;8861;52.644;4.734;2023-03-01T02:26:01;0.30;99.90
17489;DHT22;8861;52.644;4.734;2023-03-01T02:28:32;0.30;99.90
17489;DHT22;8861;52.644;4.734;2023-03-01T02:31:01;0.40;99.90
17489;DHT22;8861;52.644;4.734;2023-03-01T02:33:46;0.30;99.90
17489;DHT22;8861;52.644;4.734;2023-03-01T02:36:17;0.30;99.90
17489;DHT22;8861;52.644;4.734;2023-03-01T02:38:44;0.30;99.90
17489;DHT22;8861;52.644;4.734;2023-03-01T02:41:15;0.30;99.90
17489;DHT22;8861;52.644;4.734;2023-03-01T02:43:47;0.30;99.90
17489;DHT22;8861;52.644;4.734;2023-03-01T02:46:17;0.30;99.90
17489;DHT22;8861;52.644;4.734;2023-03-01T02:48:47;0.30;99.90
17489;DHT22;8861;52.644;4.734;2023-03-01T02:51:28;0.30;99.90
17489;DHT22;8861;52.644;4.734;2023-03-01T02:54:07;0.30;99.90
17489;DHT22;8861;52.644;4.734;2023-03-01T02:56:37;0.30;99.90
17489;DHT22;8861;52.644;4.734;2023-03-01T02:59:05;0.40;99.90
17489;DHT22;8861;52.644;4.734;2023-03-01T03:01:33;0.40;99.90
17489;DHT22;8861;52.644;4.734;2023-03-01T03:04:07;0.30;99.90
17489;DHT22;8861;52.644;4.734;2023-03-01T03:06:35;0.30;99.90
17489;DHT22;8861;52.644;4.734;2023-03-01T03:09:03;0.30;99.90
17489;DHT22;8861;52.644;4.734;2023-03-01T03:11:30;0.30;99.90
17489;DHT22;8861;52.644;4.734;2023-03-01T03:13:58;0.30;99.90
17489;DHT22;8861;52.644;4.734;2023-03-01T03:16:26;0.20;99.90
17489;DHT22;8861;52.644;4.734;2023-03-01T03:18:55;0.20;99.90
17489;DHT22;8861;52.644;4.734;2023-03-01T03:21:30;0.10;99.90
17489;DHT22;8861;52.644;4.734;2023-03-01T03:23:58;0.10;99.90
17489;DHT22;8861;52.644;4.734;2023-03-01T03:26:25;0.10;99.90
17489;DHT22;8861;52.644;4.734;2023-03-01T03:28:52;0.10;99.90
17489;DHT22;8861;52.644;4.734;2023-03-01T03:31:19;0.10;99.90
17489;DHT22;8861;52.644;4.734;2023-03-01T03:33:48;0.10;99.90
17489;DHT22;8861;52.644;4.734;2023-03-01T03:36:16;0.10;99.90
17489;DHT22;8861;52.644;4.734;2023-03-01T03:38:44;0.10;99.90
17489;DHT22;8861;52.644;4.734;2023-03-01T03:41:12;0.10;99.90
17489;DHT22;8861;52.644;4.734;2023-03-01T03:43:41;0.10;99.90
17489;DHT22;8861;52.644;4.734;2023-03-01T03:46:09;0.10;99.90
17489;DHT22;8861;52.644;4.734;2023-03-01T03:48:38;0.10;99.90
17489;DHT22;8861;52.644;4.734;2023-03-01T03:51:10;0.10;99.90
17489;DHT22;8861;52.644;4.734;2023-03-01T03:53:37;0.10;99.90
17489;DHT22;8861;52.644;4.734;2023-03-01T03:56:05;0.10;99.90
17489;DHT22;8861;52.644;4.734;2023-03-01T03:58:32;0.10;99.90
17489;DHT22;8861;52.644;4.734;2023-03-01T04:00:59;0.10;99.90
17489;DHT22;8861;52.644;4.734;2023-03-01T04:03:29;0.00;99.90
17489;DHT22;8861;52.644;4.734;2023-03-01T04:05:58;-0.10;99.90
17489;DHT22;8861;52.644;4.734;2023-03-01T04:08:27;-0.10;99.90
17489;DHT22;8861;52.644;4.734;2023-03-01T04:10:58;-0.20;99.90
17489;DHT22;8861;52.644;4.734;2023-03-01T04:13:26;-0.10;99.90
17489;DHT22;8861;52.644;4.734;2023-03-01T04:15:54;-0.20;99.90
17489;DHT22;8861;52.644;4.734;2023-03-01T04:18:23;-0.20;99.90
17489;DHT22;8861;52.644;4.734;2023-03-01T04:20:50;-0.30;99.90
17489;DHT22;8861;52.644;4.734;2023-03-01T04:23:21;-0.30;99.90
17489;DHT22;8861;52.644;4.734;2023-03-01T04:25:51;-0.30;99.90
17489;DHT22;8861;52.644;4.734;2023-03-01T04:28:20;-0.30;99.90
17489;DHT22;8861;52.644;4.734;2023-03-01T04:30:49;-0.30;99.90
17489;DHT22;8861;52.644;4.734;2023-03-01T04:33:17;-0.40;99.90
17489;DHT22;8861;52.644;4.734;2023-03-01T04:35:46;-0.40;99.90
17489;DHT22;8861;52.644;4.734;2023-03-01T04:38:15;-0.30;99.90
17489;DHT22;8861;52.644;4.734;2023-03-01T04:40:42;-0.40;99.90
17489;DHT22;8861;52.644;4.734;2023-03-01T04:43:11;-0.30;99.90
17489;DHT22;8861;52.644;4.734;2023-03-01T04:45:40;-0.30;99.90
17489;DHT22;8861;52.644;4.734;2023-03-01T04:48:07;-0.30;99.90
17489;DHT22;8861;52.644;4.734;2023-03-01T04:50:35;-0.30;99.90
17489;DHT22;8861;52.644;4.734;2023-03-01T04:53:02;-0.30;99.90
17489;DHT22;8861;52.644;4.734;2023-03-01T04:55:29;-0.30;99.90
17489;DHT22;8861;52.644;4.734;2023-03-01T04:57:57;-0.30;99.90
17489;DHT22;8861;52.644;4.734;2023-03-01T05:00:25;-0.30;99.90
17489;DHT22;8861;52.644;4.734;2023-03-01T05:02:54;-0.30;99.90
17489;DHT22;8861;52.644;4.734;2023-03-01T05:05:23;-0.20;99.90
17489;DHT22;8861;52.644;4.734;2023-03-01T05:07:55;-0.30;99.90
17489;DHT22;8861;52.644;4.734;2023-03-01T05:10:23;-0.30;99.90
17489;DHT22;8861;52.644;4.734;2023-03-01T05:12:50;-0.30;99.90
17489;DHT22;8861;52.644;4.734;2023-03-01T05:15:18;-0.20;99.90
17489;DHT22;8861;52.644;4.734;2023-03-01T05:17:48;-0.20;99.90
17489;DHT22;8861;52.644;4.734;2023-03-01T05:20:16;-0.20;99.90
17489;DHT22;8861;52.644;4.734;2023-03-01T05:22:43;-0.30;99.90
17489;DHT22;8861;52.644;4.734;2023-03-01T05:25:10;-0.30;99.90
17489;DHT22;8861;52.644;4.734;2023-03-01T05:27:39;-0.30;99.90
17489;DHT22;8861;52.644;4.734;2023-03-01T05:30:08;-0.30;99.90
17489;DHT22;8861;52.644;4.734;2023-03-01T05:32:43;-0.30;99.90
17489;DHT22;8861;52.644;4.734;2023-03-01T05:35:13;-0.30;99.90
17489;DHT22;8861;52.644;4.734;2023-03-01T05:37:42;-0.40;99.90
17489;DHT22;8861;52.644;4.734;2023-03-01T05:40:11;-0.40;99.90
17489;DHT22;8861;52.644;4.734;2023-03-01T05:42:45;-0.50;99.90
17489;DHT22;8861;52.644;4.734;2023-03-01T05:45:13;-0.50;99.90
17489;DHT22;8861;52.644;4.734;2023-03-01T05:47:41;-0.50;99.90
17489;DHT22;8861;52.644;4.734;2023-03-01T05:50:13;-0.60;99.90
17489;DHT22;8861;52.644;4.734;2023-03-01T05:52:44;-0.60;99.90
17489;DHT22;8861;52.644;4.734;2023-03-01T05:55:12;-0.70;99.90
17489;DHT22;8861;52.644;4.734;2023-03-01T05:57:39;-0.70;99.90
17489;DHT22;8861;52.644;4.734;2023-03-01T06:00:07;-0.60;99.90
17489;DHT22;8861;52.644;4.734;2023-03-01T06:02:34;-0.60;99.90
17489;DHT22;8861;52.644;4.734;2023-03-01T06:05:01;-0.60;99.90
17489;DHT22;8861;52.644;4.734;2023-03-01T06:07:30;-0.60;99.90
17489;DHT22;8861;52.644;4.734;2023-03-01T06:09:57;-0.60;99.90
17489;DHT22;8861;52.644;4.734;2023-03-01T06:12:24;-0.60;99.90
17489;DHT22;8861;52.644;4.734;2023-03-01T06:14:51;-0.60;99.90
17489;DHT22;8861;52.644;4.734;2023-03-01T06:17:18;-0.60;99.90
17489;DHT22;8861;52.644;4.734;2023-03-01T06:19:46;-0.60;99.90
17489;DHT22;8861;52.644;4.734;2023-03-01T06:22:13;-0.50;99.90
17489;DHT22;8861;52.644;4.734;2023-03-01T06:24:42;-0.50;99.90
17489;DHT22;8861;52.644;4.734;2023-03-01T06:27:09;-0.50;99.90
17489;DHT22;8861;52.644;4.734;2023-03-01T06:29:36;-0.40;99.90
17489;DHT22;8861;52.644;4.734;2023-03-01T06:32:03;-0.40;99.90
17489;DHT22;8861;52.644;4.734;2023-03-01T06:34:31;-0.40;99.90
17489;DHT22;8861;52.644;4.734;2023-03-01T06:36:58;-0.30;99.90
17489;DHT22;8861;52.644;4.734;2023-03-01T06:39:25;-0.30;99.90
17489;DHT22;8861;52.644;4.734;2023-03-01T06:41:55;-0.20;99.90
17489;DHT22;8861;52.644;4.734;2023-03-01T06:44:22;-0.30;99.90
17489;DHT22;8861;52.644;4.734;2023-03-01T06:46:49;-0.30;99.90
17489;DHT22;8861;52.644;4.734;2023-03-01T06:49:16;-0.30;99.90
17489;DHT22;8861;52.644;4.734;2023-03-01T06:51:43;-0.40;99.90
17489;DHT22;8861;52.644;4.734;2023-03-01T06:54:10;-0.40;99.90
17489;DHT22;8861;52.644;4.734;2023-03-01T06:56:37;-0.40;99.90
17489;DHT22;8861;52.644;4.734;2023-03-01T06:59:06;-0.40;99.90
17489;DHT22;8861;52.644;4.734;2023-03-01T07:01:33;-0.30;99.90
17489;DHT22;8861;52.644;4.734;2023-03-01T07:04:00;-0.30;99.90
17489;DHT22;8861;52.644;4.734;2023-03-01T07:06:27;-0.30;99.90
17489;DHT22;8861;52.644;4.734;2023-03-01T07:08:54;-0.30;99.90
17489;DHT22;8861;52.644;4.734;2023-03-01T07:11:21;-0.20;99.90
17489;DHT22;8861;52.644;4.734;2023-03-01T07:13:48;-0.20;99.90
17489;DHT22;8861;52.644;4.734;2023-03-01T07:16:17;-0.10;99.90
17489;DHT22;8861;52.644;4.734;2023-03-01T07:18:46;-0.10;99.90
17489;DHT22;8861;52.644;4.734;2023-03-01T07:21:14;0.00;99.90
17489;DHT22;8861;52.644;4.734;2023-03-01T07:23:42;0.00;99.90
17489;DHT22;8861;52.644;4.734;2023-03-01T07:26:09;0.00;99.90
17489;DHT22;8861;52.644;4.734;2023-03-01T07:28:36;0.00;99.90
17489;DHT22;8861;52.644;4.734;2023-03-01T07:31:05;0.00;99.90
17489;DHT22;8861;52.644;4.734;2023-03-01T07:33:34;0.00;99.90
17489;DHT22;8861;52.644;4.734;2023-03-01T07:36:03;0.10;99.90
17489;DHT22;8861;52.644;4.734;2023-03-01T07:38:30;0.10;99.90
17489;DHT22;8861;52.644;4.734;2023-03-01T07:40:58;0.20;99.90
17489;DHT22;8861;52.644;4.734;2023-03-01T07:43:26;0.30;99.90
17489;DHT22;8861;52.644;4.734;2023-03-01T07:45:53;0.30;99.90
17489;DHT22;8861;52.644;4.734;2023-03-01T07:48:20;0.40;99.90
17489;DHT22;8861;52.644;4.734;2023-03-01T07:50:48;0.40;99.90
17489;DHT22;8861;52.644;4.734;2023-03-01T07:53:16;0.50;99.90
17489;DHT22;8861;52.644;4.734;2023-03-01T07:55:43;0.60;99.90
17489;DHT22;8861;52.644;4.734;2023-03-01T07:58:10;0.70;99.90
17489;DHT22;8861;52.644;4.734;2023-03-01T08:00:37;0.90;99.90
17489;DHT22;8861;52.644;4.734;2023-03-01T08:03:04;1.10;99.90
17489;DHT22;8861;52.644;4.734;2023-03-01T08:05:32;1.20;99.90
17489;DHT22;8861;52.644;4.734;2023-03-01T08:08:00;1.20;99.90
17489;DHT22;8861;52.644;4.734;2023-03-01T08:10:27;1.30;99.90
17489;DHT22;8861;52.644;4.734;2023-03-01T08:12:54;1.40;99.90
17489;DHT22;8861;52.644;4.734;2023-03-01T08:15:21;1.40;99.90
17489;DHT22;8861;52.644;4.734;2023-03-01T08:17:49;1.40;99.90
17489;DHT22;8861;52.644;4.734;2023-03-01T08:20:16;1.40;99.90
17489;DHT22;8861;52.644;4.734;2023-03-01T08:22:43;1.40;99.90
17489;DHT22;8861;52.644;4.734;2023-03-01T08:25:12;1.60;99.90
17489;DHT22;8861;52.644;4.734;2023-03-01T08:27:39;1.70;99.90
17489;DHT22;8861;52.644;4.734;2023-03-01T08:30:07;1.80;99.90
17489;DHT22;8861;52.644;4.734;2023-03-01T08:32:37;1.90;99.90
17489;DHT22;8861;52.644;4.734;2023-03-01T08:35:05;2.00;99.90
17489;DHT22;8861;52.644;4.734;2023-03-01T08:37:32;2.00;99.90
17489;DHT22;8861;52.644;4.734;2023-03-01T08:39:59;2.10;99.90
17489;DHT22;8861;52.644;4.734;2023-03-01T08:42:28;2.20;99.90
17489;DHT22;8861;52.644;4.734;2023-03-01T08:44:55;2.30;99.90
17489;DHT22;8861;52.644;4.734;2023-03-01T08:47:22;2.30;99.90
17489;DHT22;8861;52.644;4.734;2023-03-01T08:49:49;2.40;99.90
17489;DHT22;8861;52.644;4.734;2023-03-01T08:52:16;2.50;99.90
17489;DHT22;8861;52.644;4.734;2023-03-01T08:54:43;2.60;99.90
17489;DHT22;8861;52.644;4.734;2023-03-01T08:57:10;2.70;99.90
17489;DHT22;8861;52.644;4.734;2023-03-01T08:59:39;2.80;99.90
17489;DHT22;8861;52.644;4.734;2023-03-01T09:02:12;2.90;99.90
17489;DHT22;8861;52.644;4.734;2023-03-01T09:04:39;3.00;99.90
17489;DHT22;8861;52.644;4.734;2023-03-01T09:07:07;3.10;99.90
17489;DHT22;8861;52.644;4.734;2023-03-01T09:09:35;3.10;99.90
17489;DHT22;8861;52.644;4.734;2023-03-01T09:12:03;3.20;99.90
17489;DHT22;8861;52.644;4.734;2023-03-01T09:14:30;3.30;99.90
17489;DHT22;8861;52.644;4.734;2023-03-01T09:16:58;3.40;99.90
17489;DHT22;8861;52.644;4.734;2023-03-01T09:19:30;3.40;99.90
17489;DHT22;8861;52.644;4.734;2023-03-01T09:22:00;3.60;99.90
17489;DHT22;8861;52.644;4.734;2023-03-01T09:24:27;3.60;99.90
17489;DHT22;8861;52.644;4.734;2023-03-01T09:26:55;3.70;99.90
17489;DHT22;8861;52.644;4.734;2023-03-01T09:29:34;3.70;99.90
17489;DHT22;8861;52.644;4.734;2023-03-01T09:32:03;3.90;99.90
17489;DHT22;8861;52.644;4.734;2023-03-01T09:34:31;3.90;99.90
17489;DHT22;8861;52.644;4.734;2023-03-01T09:37:17;4.10;99.90
17489;DHT22;8861;52.644;4.734;2023-03-01T09:39:44;4.20;99.90
17489;DHT22;8861;52.644;4.734;2023-03-01T09:42:12;4.30;99.90
17489;DHT22;8861;52.644;4.734;2023-03-01T09:44:43;4.40;99.90
17489;DHT22;8861;52.644;4.734;2023-03-01T09:47:17;4.40;99.90
17489;DHT22;8861;52.644;4.734;2023-03-01T09:49:52;4.50;99.90
17489;DHT22;8861;52.644;4.734;2023-03-01T09:52:28;4.50;99.90
17489;DHT22;8861;52.644;4.734;2023-03-01T09:54:56;4.60;99.90
17489;DHT22;8861;52.644;4.734;2023-03-01T09:57:33;4.60;99.90
17489;DHT22;8861;52.644;4.734;2023-03-01T10:00:13;4.60;99.90
17489;DHT22;8861;52.644;4.734;2023-03-01T10:02:48;4.70;99.90
17489;DHT22;8861;52.644;4.734;2023-03-01T10:05:36;4.70;99.90
17489;DHT22;8861;52.644;4.734;2023-03-01T10:08:36;4.80;99.90
17489;DHT22;8861;52.644;4.734;2023-03-01T10:11:08;4.90;99.90
17489;DHT22;8861;52.644;4.734;2023-03-01T10:13:47;4.90;99.90
17489;DHT22;8861;52.644;4.734;2023-03-01T10:16:22;5.00;99.90
17489;DHT22;8861;52.644;4.734;2023-03-01T10:18:55;5.00;99.90
17489;DHT22;8861;52.644;4.734;2023-03-01T10:21:27;5.10;99.90
17489;DHT22;8861;52.644;4.734;2023-03-01T10:24:04;5.10;99.90
17489;DHT22;8861;52.644;4.734;2023-03-01T10:26:43;5.20;99.90
17489;DHT22;8861;52.644;4.734;2023-03-01T10:29:13;5.30;99.90
17489;DHT22;8861;52.644;4.734;2023-03-01T10:31:45;5.30;99.90
17489;DHT22;8861;52.644;4.734;2023-03-01T10:34:16;5.30;99.90
17489;DHT22;8861;52.644;4.734;2023-03-01T10:36:46;5.40;99.90
17489;DHT22;8861;52.644;4.734;2023-03-01T10:39:16;5.40;99.90
17489;DHT22;8861;52.644;4.734;2023-03-01T10:41:58;5.40;99.90
17489;DHT22;8861;52.644;4.734;2023-03-01T10:44:47;5.40;99.90
17489;DHT22;8861;52.644;4.734;2023-03-01T10:47:17;5.50;99.90
17489;DHT22;8861;52.644;4.734;2023-03-01T10:49:59;5.60;99.90
17489;DHT22;8861;52.644;4.734;2023-03-01T10:52:29;5.70;99.90
17489;DHT22;8861;52.644;4.734;2023-03-01T10:55:02;5.70;99.90
17489;DHT22;8861;52.644;4.734;2023-03-01T10:57:33;5.70;99.90
17489;DHT22;8861;52.644;4.734;2023-03-01T11:00:23;5.70;99.90
17489;DHT22;8861;52.644;4.734;2023-03-01T11:03:03;5.80;99.90
17489;DHT22;8861;52.644;4.734;2023-03-01T11:05:31;5.80;99.90
17489;DHT22;8861;52.644;4.734;2023-03-01T11:08:00;5.80;99.90
17489;DHT22;8861;52.644;4.734;2023-03-01T11:10:30;5.90;99.90
17489;DHT22;8861;52.644;4.734;2023-03-01T11:13:08;5.90;99.90
17489;DHT22;8861;52.644;4.734;2023-03-01T11:15:42;6.00;99.90
17489;DHT22;8861;52.644;4.734;2023-03-01T11:18:20;6.00;99.90
17489;DHT22;8861;52.644;4.734;2023-03-01T11:20:50;6.10;99.90
17489;DHT22;8861;52.644;4.734;2023-03-01T11:23:19;6.10;99.90
17489;DHT22;8861;52.644;4.734;2023-03-01T11:25:51;6.10;99.90
17489;DHT22;8861;52.644;4.734;2023-03-01T11:28:20;6.20;99.90
17489;DHT22;8861;52.644;4.734;2023-03-01T11:30:53;6.20;99.90
17489;DHT22;8861;52.644;4.734;2023-03-01T11:33:33;6.30;99.90
17489;DHT22;8861;52.644;4.734;2023-03-01T11:36:07;6.30;99.90
17489;DHT22;8861;52.644;4.734;2023-03-01T11:38:36;6.30;99.90
17489;DHT22;8861;52.644;4.734;2023-03-01T11:41:06;6.40;99.90
17489;DHT22;8861;52.644;4.734;2023-03-01T11:43:47;6.40;99.90
17489;DHT22;8861;52.644;4.734;2023-03-01T11:46:41;6.50;99.90
17489;DHT22;8861;52.644;4.734;2023-03-01T11:49:31;6.50;99.90
17489;DHT22;8861;52.644;4.734;2023-03-01T11:52:08;6.60;99.90
17489;DHT22;8861;52.644;4.734;2023-03-01T11:54:50;6.60;99.90
17489;DHT22;8861;52.644;4.734;2023-03-01T11:57:35;6.70;99.90
17489;DHT22;8861;52.644;4.734;2023-03-01T12:00:14;6.70;99.90
17489;DHT22;8861;52.644;4.734;2023-03-01T12:03:02;6.70;99.90
17489;DHT22;8861;52.644;4.734;2023-03-01T12:06:12;6.70;99.90
17489;DHT22;8861;52.644;4.734;2023-03-01T12:08:49;6.80;99.90
17489;DHT22;8861;52.644;4.734;2023-03-01T12:11:28;6.80;99.90
17489;DHT22;8861;52.644;4.734;2023-03-01T12:14:40;6.90;99.90
17489;DHT22;8861;52.644;4.734;2023-03-01T12:17:28;6.90;99.90
17489;DHT22;8861;52.644;4.734;2023-03-01T12:20:06;7.00;99.90
17489;DHT22;8861;52.644;4.734;2023-03-01T12:22:48;7.10;99.90
17489;DHT22;8861;52.644;4.734;2023-03-01T12:25:27;7.30;99.90
17489;DHT22;8861;52.644;4.734;2023-03-01T12:28:16;7.40;99.90
17489;DHT22;8861;52.644;4.734;2023-03-01T12:31:00;7.40;99.90
17489;DHT22;8861;52.644;4.734;2023-03-01T12:33:41;7.50;99.90
17489;DHT22;8861;52.644;4.734;2023-03-01T12:36:28;7.50;99.90
17489;DHT22;8861;52.644;4.734;2023-03-01T12:39:08;7.50;99.90
17489;DHT22;8861;52.644;4.734;2023-03-01T12:41:53;7.50;99.90
17489;DHT22;8861;52.644;4.734;2023-03-01T12:44:33;7.50;99.90
17489;DHT22;8861;52.644;4.734;2023-03-01T12:47:12;7.50;99.90
17489;DHT22;8861;52.644;4.734;2023-03-01T12:49:45;7.50;99.90
17489;DHT22;8861;52.644;4.734;2023-03-01T12:52:19;7.50;99.90
17489;DHT22;8861;52.644;4.734;2023-03-01T12:54:49;7.50;99.90
17489;DHT22;8861;52.644;4.734;2023-03-01T12:57:26;7.50;99.90
17489;DHT22;8861;52.644;4.734;2023-03-01T13:00:11;7.60;99.90
17489;DHT22;8861;52.644;4.734;2023-03-01T13:02:47;7.60;99.90
17489;DHT22;8861;52.644;4.734;2023-03-01T13:05:26;7.50;99.90
17489;DHT22;8861;52.644;4.734;2023-03-01T13:08:00;7.50;99.90
17489;DHT22;8861;52.644;4.734;2023-03-01T13:10:33;7.50;99.90
17489;DHT22;8861;52.644;4.734;2023-03-01T13:13:13;7.60;99.90
17489;DHT22;8861;52.644;4.734;2023-03-01T13:15:40;7.60;99.90
17489;DHT22;8861;52.644;4.734;2023-03-01T13:18:31;7.60;99.90
17489;DHT22;8861;52.644;4.734;2023-03-01T13:21:02;7.60;99.90
17489;DHT22;8861;52.644;4.734;2023-03-01T13:23:33;7.60;99.90
17489;DHT22;8861;52.644;4.734;2023-03-01T13:26:12;7.60;99.90
17489;DHT22;8861;52.644;4.734;2023-03-01T13:29:01;7.70;99.90
17489;DHT22;8861;52.644;4.734;2023-03-01T13:31:55;7.80;99.90
17489;DHT22;8861;52.644;4.734;2023-03-01T13:34:45;7.80;99.90
17489;DHT22;8861;52.644;4.734;2023-03-01T13:37:20;7.80;99.90
17489;DHT22;8861;52.644;4.734;2023-03-01T13:39:48;7.80;99.90
17489;DHT22;8861;52.644;4.734;2023-03-01T13:42:40;7.70;99.90
17489;DHT22;8861;52.644;4.734;2023-03-01T13:45:26;7.70;99.90
17489;DHT22;8861;52.644;4.734;2023-03-01T13:48:02;7.80;99.90
17489;DHT22;8861;52.644;4.734;2023-03-01T13:50:35;7.80;99.90
17489;DHT22;8861;52.644;4.734;2023-03-01T13:53:05;7.90;99.90
17489;DHT22;8861;52.644;4.734;2023-03-01T13:55:37;7.90;99.90
17489;DHT22;8861;52.644;4.734;2023-03-01T13:58:15;7.90;99.90
17489;DHT22;8861;52.644;4.734;2023-03-01T14:00:44;7.90;99.90
17489;DHT22;8861;52.644;4.734;2023-03-01T14:03:13;7.90;99.90
17489;DHT22;8861;52.644;4.734;2023-03-01T14:05:42;8.00;99.90
17489;DHT22;8861;52.644;4.734;2023-03-01T14:08:24;8.00;99.90
17489;DHT22;8861;52.644;4.734;2023-03-01T14:11:05;8.00;99.90
17489;DHT22;8861;52.644;4.734;2023-03-01T14:13:48;8.00;99.90
17489;DHT22;8861;52.644;4.734;2023-03-01T14:16:29;8.00;99.90
17489;DHT22;8861;52.644;4.734;2023-03-01T14:19:10;8.00;99.90
17489;DHT22;8861;52.644;4.734;2023-03-01T14:21:42;8.00;99.90
17489;DHT22;8861;52.644;4.734;2023-03-01T14:24:17;8.00;99.90
17489;DHT22;8861;52.644;4.734;2023-03-01T14:26:45;8.00;99.90
17489;DHT22;8861;52.644;4.734;2023-03-01T14:29:26;8.00;99.90
17489;DHT22;8861;52.644;4.734;2023-03-01T14:31:55;8.10;99.90
17489;DHT22;8861;52.644;4.734;2023-03-01T14:34:24;8.20;99.90
17489;DHT22;8861;52.644;4.734;2023-03-01T14:36:51;8.20;99.90
17489;DHT22;8861;52.644;4.734;2023-03-01T14:39:33;8.20;99.90
17489;DHT22;8861;52.644;4.734;2023-03-01T14:42:09;8.20;99.90
17489;DHT22;8861;52.644;4.734;2023-03-01T14:44:42;8.30;99.90
17489;DHT22;8861;52.644;4.734;2023-03-01T14:47:12;8.30;99.90
17489;DHT22;8861;52.644;4.734;2023-03-01T14:49:50;8.30;99.90
17489;DHT22;8861;52.644;4.734;2023-03-01T14:52:28;8.40;99.90
17489;DHT22;8861;52.644;4.734;2023-03-01T14:55:03;8.40;99.90
17489;DHT22;8861;52.644;4.734;2023-03-01T14:57:34;8.50;99.90
17489;DHT22;8861;52.644;4.734;2023-03-01T15:00:27;8.50;99.90
17489;DHT22;8861;52.644;4.734;2023-03-01T15:03:07;8.40;99.90
17489;DHT22;8861;52.644;4.734;2023-03-01T15:08:33;8.50;99.90
17489;DHT22;8861;52.644;4.734;2023-03-01T15:11:04;8.50;99.90
17489;DHT22;8861;52.644;4.734;2023-03-01T15:13:35;8.50;99.90
17489;DHT22;8861;52.644;4.734;2023-03-01T15:16:06;8.50;99.90
17489;DHT22;8861;52.644;4.734;2023-03-01T15:18:37;8.50;99.90
17489;DHT22;8861;52.644;4.734;2023-03-01T15:21:16;8.60;99.90
17489;DHT22;8861;52.644;4.734;2023-03-01T15:23:54;8.50;99.90
17489;DHT22;8861;52.644;4.734;2023-03-01T15:26:25;8.50;99.90
17489;DHT22;8861;52.644;4.734;2023-03-01T15:28:56;8.50;99.90
17489;DHT22;8861;52.644;4.734;2023-03-01T15:31:30;8.50;99.90
17489;DHT22;8861;52.644;4.734;2023-03-01T15:34:22;8.50;99.90
17489;DHT22;8861;52.644;4.734;2023-03-01T15:36:51;8.40;99.90
17489;DHT22;8861;52.644;4.734;2023-03-01T15:39:35;8.40;99.90
17489;DHT22;8861;52.644;4.734;2023-03-01T15:42:05;8.40;99.90
17489;DHT22;8861;52.644;4.734;2023-03-01T15:44:35;8.40;99.90
17489;DHT22;8861;52.644;4.734;2023-03-01T15:47:22;8.30;99.90
17489;DHT22;8861;52.644;4.734;2023-03-01T15:49:53;8.30;99.90
17489;DHT22;8861;52.644;4.734;2023-03-01T15:52:23;8.30;99.90
17489;DHT22;8861;52.644;4.734;2023-03-01T15:54:55;8.20;99.90
17489;DHT22;8861;52.644;4.734;2023-03-01T15:57:22;8.20;99.90
17489;DHT22;8861;52.644;4.734;2023-03-01T15:59:50;8.10;99.90
17489;DHT22;8861;52.644;4.734;2023-03-01T16:02:19;8.00;99.90
17489;DHT22;8861;52.644;4.734;2023-03-01T16:04:47;8.00;99.90
17489;DHT22;8861;52.644;4.734;2023-03-01T16:07:15;7.90;99.90
17489;DHT22;8861;52.644;4.734;2023-03-01T16:09:42;7.80;99.90
17489;DHT22;8861;52.644;4.734;2023-03-01T16:12:13;7.80;99.90
17489;DHT22;8861;52.644;4.734;2023-03-01T16:14:40;7.70;99.90
17489;DHT22;8861;52.644;4.734;2023-03-01T16:17:07;7.70;99.90
17489;DHT22;8861;52.644;4.734;2023-03-01T16:19:35;7.60;99.90
17489;DHT22;8861;52.644;4.734;2023-03-01T16:22:03;7.50;99.90
17489;DHT22;8861;52.644;4.734;2023-03-01T16:24:31;7.50;99.90
17489;DHT22;8861;52.644;4.734;2023-03-01T16:26:58;7.50;99.90
17489;DHT22;8861;52.644;4.734;2023-03-01T16:29:25;7.40;99.90
17489;DHT22;8861;52.644;4.734;2023-03-01T16:31:52;7.40;99.90